Time;durP1;ratioP1;P1;durP2;ratioP2;P2;SDS_P1;SDS_P2;PMS_P1;PMS_P2;Temp;Humidity;BMP_temperature;BMP_pressure;BME280_temperature;BME280_humidity;BME280_pressure;Samples;Min_cycle;Max_cycle;Signal;HPM_P1;HPM_P2
2023/12/27 00:00:37;;;;;;;5.67;5.17;;;4.30;99.90;;;;;;5056163;28;20235;-76
2023/12/27 00:03:03;;;;;;;5.33;4.83;;;4.30;99.90;;;;;;5057433;28;20330;-77
2023/12/27 00:05:30;;;;;;;5.23;4.73;;;4.30;99.90;;;;;;5067391;28;20181;-79
2023/12/27 00:07:55;;;;;;;5.67;4.90;;;4.30;99.90;;;;;;5056221;28;20181;-78
2023/12/27 00:10:21;;;;;;;5.47;4.67;;;4.20;99.90;;;;;;5056805;28;20637;-79
2023/12/27 00:12:47;;;;;;;4.97;4.57;;;4.30;99.90;;;;;;5066926;28;20233;-78
2023/12/27 00:15:13;;;;;;;5.60;4.20;;;4.30;99.90;;;;;;5059648;28;20696;-80
2023/12/27 00:17:39;;;;;;;7.90;4.77;;;4.30;99.90;;;;;;5056875;28;20192;-80
2023/12/27 00:20:05;;;;;;;6.80;5.03;;;4.40;99.90;;;;;;5056449;28;20181;-77
2023/12/27 00:22:31;;;;;;;5.57;4.47;;;4.40;99.90;;;;;;5056076;28;20188;-78
2023/12/27 00:24:56;;;;;;;4.97;4.47;;;4.30;99.90;;;;;;5056458;28;20247;-80
2023/12/27 00:27:22;;;;;;;6.57;4.53;;;4.30;99.90;;;;;;5039159;28;20176;-81
2023/12/27 00:29:48;;;;;;;5.63;5.00;;;4.20;99.90;;;;;;5056536;28;20229;-79
2023/12/27 00:32:15;;;;;;;5.10;4.47;;;4.20;99.90;;;;;;5056066;28;20693;-79
2023/12/27 00:34:40;;;;;;;4.97;4.47;;;4.20;99.90;;;;;;5057095;28;20522;-79
2023/12/27 00:37:07;;;;;;;6.03;5.00;;;4.30;99.90;;;;;;5058689;28;20168;-77
2023/12/27 00:39:34;;;;;;;6.47;4.67;;;4.30;99.90;;;;;;5061505;28;20165;-76
2023/12/27 00:41:59;;;;;;;4.73;4.03;;;4.40;99.90;;;;;;5073539;28;20193;-77
2023/12/27 00:44:25;;;;;;;4.77;4.30;;;4.40;99.90;;;;;;5050322;28;20544;-76
2023/12/27 00:46:51;;;;;;;4.90;4.47;;;4.40;99.90;;;;;;5036858;28;20182;-75
2023/12/27 00:49:17;;;;;;;5.43;4.80;;;4.30;99.90;;;;;;5054584;28;20181;-79
2023/12/27 00:51:44;;;;;;;5.77;4.87;;;4.30;99.90;;;;;;5059938;28;20234;-78
2023/12/27 00:54:10;;;;;;;4.97;4.47;;;4.20;99.90;;;;;;5056652;28;20603;-78
2023/12/27 00:56:36;;;;;;;4.73;4.33;;;4.20;99.90;;;;;;5056247;28;20195;-79
2023/12/27 00:59:02;;;;;;;6.67;4.30;;;4.10;99.90;;;;;;5056127;28;20165;-79
2023/12/27 01:01:30;;;;;;;6.27;4.80;;;4.10;99.90;;;;;;5054952;28;20172;-77
2023/12/27 01:03:56;;;;;;;4.90;4.40;;;4.20;99.90;;;;;;5055866;28;20161;-78
2023/12/27 01:06:22;;;;;;;4.53;3.93;;;4.20;99.90;;;;;;5056099;28;20260;-79
2023/12/27 01:08:48;;;;;;;4.10;3.80;;;4.20;99.90;;;;;;5059611;28;20252;-81
2023/12/27 01:11:13;;;;;;;4.77;4.27;;;4.20;99.90;;;;;;5038933;28;20208;-79
2023/12/27 01:13:39;;;;;;;5.07;4.27;;;4.30;99.90;;;;;;5055019;28;20189;-78
2023/12/27 01:16:05;;;;;;;5.20;4.70;;;4.20;99.90;;;;;;5054784;28;20176;-78
2023/12/27 01:18:31;;;;;;;4.87;4.47;;;4.10;99.90;;;;;;5055414;28;20227;-78
2023/12/27 01:20:57;;;;;;;6.23;4.87;;;4.00;99.90;;;;;;5056635;28;20645;-77
2023/12/27 01:23:23;;;;;;;4.97;4.10;;;4.00;99.90;;;;;;5070817;28;20305;-79
2023/12/27 01:25:49;;;;;;;4.53;4.03;;;4.00;99.90;;;;;;5055396;28;20183;-79
2023/12/27 01:28:15;;;;;;;7.57;4.70;;;3.90;99.90;;;;;;5054851;28;20263;-79
2023/12/27 01:30:41;;;;;;;5.33;4.33;;;3.90;99.90;;;;;;5054075;28;20232;-78
2023/12/27 01:33:06;;;;;;;5.93;4.13;;;3.90;99.90;;;;;;5055156;28;20180;-79
2023/12/27 01:35:32;;;;;;;4.97;4.10;;;3.90;99.90;;;;;;5055759;28;20168;-80
2023/12/27 01:37:58;;;;;;;4.73;4.30;;;3.90;99.90;;;;;;5054489;28;20187;-78
2023/12/27 01:40:24;;;;;;;4.90;4.43;;;3.90;99.90;;;;;;5054620;28;20525;-80
2023/12/27 01:42:49;;;;;;;6.00;4.10;;;3.90;99.90;;;;;;5054230;28;20267;-79
2023/12/27 01:45:15;;;;;;;3.87;3.57;;;3.80;99.90;;;;;;5055894;28;20188;-79
2023/12/27 01:47:42;;;;;;;4.47;4.07;;;3.80;99.90;;;;;;5057227;28;20186;-79
2023/12/27 01:50:09;;;;;;;4.80;4.30;;;3.70;99.90;;;;;;5054614;28;20172;-79
2023/12/27 01:52:44;;;;;;;4.93;4.20;;;3.80;99.90;;;;;;5053813;28;20200;-78
2023/12/27 01:55:10;;;;;;;4.30;3.90;;;3.80;99.90;;;;;;5054521;28;20193;-78
2023/12/27 01:57:39;;;;;;;4.70;4.20;;;3.70;99.90;;;;;;5054842;28;20180;-77
2023/12/27 02:00:07;;;;;;;5.13;4.20;;;3.60;99.90;;;;;;5062082;28;20175;-79
2023/12/27 02:02:33;;;;;;;4.07;3.67;;;3.50;99.90;;;;;;5067877;28;20303;-78
2023/12/27 02:04:59;;;;;;;4.53;4.20;;;3.60;99.90;;;;;;5054266;28;20191;-80
2023/12/27 02:07:25;;;;;;;4.93;4.43;;;3.60;99.90;;;;;;5053779;28;20180;-78
2023/12/27 02:09:51;;;;;;;8.07;4.03;;;3.50;99.90;;;;;;5054136;28;20702;-79
2023/12/27 02:12:30;;;;;;;4.80;4.27;;;3.60;99.90;;;;;;5053846;28;20562;-77
2023/12/27 02:14:56;;;;;;;4.70;4.13;;;3.60;99.90;;;;;;5053559;28;20230;-80
2023/12/27 02:17:25;;;;;;;4.40;4.00;;;3.60;99.90;;;;;;5054703;28;20197;-80
2023/12/27 02:19:53;;;;;;;6.53;4.23;;;3.60;99.90;;;;;;5059073;28;20159;-79
2023/12/27 02:22:20;;;;;;;5.77;4.10;;;3.60;99.90;;;;;;5069654;28;20202;-78
2023/12/27 02:24:51;;;;;;;4.40;4.00;;;3.60;99.90;;;;;;5055456;28;20192;-77
2023/12/27 02:27:16;;;;;;;7.13;4.30;;;3.60;99.90;;;;;;5055568;28;20198;-80
2023/12/27 02:29:42;;;;;;;4.70;4.20;;;3.60;99.90;;;;;;5053558;28;20187;-79
2023/12/27 02:32:10;;;;;;;5.47;4.23;;;3.60;99.90;;;;;;5053570;28;20205;-78
2023/12/27 02:34:36;;;;;;;6.60;4.10;;;3.50;99.90;;;;;;5057125;28;20257;-77
2023/12/27 02:37:02;;;;;;;3.73;3.43;;;3.50;99.90;;;;;;5056485;28;20203;-79
2023/12/27 02:39:28;;;;;;;4.83;4.10;;;3.50;99.90;;;;;;5058563;28;20172;-79
2023/12/27 02:41:54;;;;;;;4.30;3.93;;;3.40;99.90;;;;;;5068900;28;20175;-79
2023/12/27 02:44:19;;;;;;;4.07;3.67;;;3.40;99.90;;;;;;5057122;28;20176;-80
2023/12/27 02:46:45;;;;;;;4.30;3.87;;;3.40;99.90;;;;;;5053344;28;20265;-79
2023/12/27 02:49:11;;;;;;;3.57;3.33;;;3.40;99.90;;;;;;5053365;28;20185;-79
2023/12/27 02:51:36;;;;;;;5.13;3.80;;;3.30;99.90;;;;;;5053272;28;20304;-78
2023/12/27 02:54:02;;;;;;;4.03;3.63;;;3.30;99.90;;;;;;5036625;28;20184;-78
2023/12/27 02:56:28;;;;;;;5.37;3.90;;;3.30;99.90;;;;;;5054500;28;20189;-80
2023/12/27 02:58:54;;;;;;;5.03;3.70;;;3.40;99.90;;;;;;5053548;28;20188;-78
2023/12/27 03:01:19;;;;;;;4.00;3.70;;;3.30;99.90;;;;;;5053195;28;20198;-77
2023/12/27 03:03:45;;;;;;;4.03;3.63;;;3.30;99.90;;;;;;5052362;28;20179;-78
2023/12/27 03:06:11;;;;;;;4.20;3.70;;;3.20;99.90;;;;;;5053450;28;20208;-80
2023/12/27 03:08:37;;;;;;;4.00;3.67;;;3.30;99.90;;;;;;5035275;28;20168;-80
2023/12/27 03:11:03;;;;;;;4.47;3.70;;;3.30;99.90;;;;;;5052723;28;20209;-79
2023/12/27 03:13:29;;;;;;;3.67;3.13;;;3.30;99.90;;;;;;5053474;28;20713;-78
2023/12/27 03:15:54;;;;;;;4.10;3.70;;;3.30;99.90;;;;;;5053249;28;20176;-80
2023/12/27 03:18:20;;;;;;;6.00;3.93;;;3.30;99.90;;;;;;5053825;28;20635;-79
2023/12/27 03:20:47;;;;;;;6.47;3.73;;;3.30;99.90;;;;;;5035027;28;20200;-79
2023/12/27 03:23:13;;;;;;;3.47;3.27;;;3.20;99.90;;;;;;5054720;28;20173;-79
2023/12/27 03:25:39;;;;;;;5.60;3.83;;;3.20;99.90;;;;;;5055278;28;20643;-80
2023/12/27 03:28:06;;;;;;;4.50;3.43;;;3.20;99.90;;;;;;5052447;28;20525;-77
2023/12/27 03:30:32;;;;;;;6.67;3.33;;;3.30;99.90;;;;;;5052923;28;20169;-79
2023/12/27 03:32:57;;;;;;;3.50;3.20;;;3.20;99.90;;;;;;5053639;28;20707;-79
2023/12/27 03:35:23;;;;;;;3.73;3.20;;;3.30;99.90;;;;;;5052964;28;20268;-78
2023/12/27 03:37:49;;;;;;;4.87;3.33;;;3.30;99.90;;;;;;5034641;28;20184;-79
2023/12/27 03:40:15;;;;;;;3.43;3.20;;;3.40;99.90;;;;;;5052869;28;20230;-76
2023/12/27 03:42:41;;;;;;;3.83;3.43;;;3.30;99.90;;;;;;5053770;28;20252;-78
2023/12/27 03:45:08;;;;;;;6.23;3.17;;;3.30;99.90;;;;;;5053712;28;20172;-77
2023/12/27 03:47:33;;;;;;;3.70;3.40;;;3.30;99.90;;;;;;5069053;28;20177;-77
2023/12/27 03:50:02;;;;;;;3.77;3.47;;;3.30;99.90;;;;;;5055184;28;20224;-78
2023/12/27 03:52:28;;;;;;;5.20;3.13;;;3.30;99.90;;;;;;5052520;28;20242;-77
2023/12/27 03:54:53;;;;;;;3.77;3.47;;;3.30;99.90;;;;;;5034657;28;20177;-79
2023/12/27 03:57:19;;;;;;;3.77;3.47;;;3.40;99.90;;;;;;5037018;28;20239;-76
2023/12/27 03:59:46;;;;;;;3.60;3.30;;;3.50;99.90;;;;;;5064464;28;20188;-77
2023/12/27 04:02:11;;;;;;;3.57;3.27;;;3.40;99.90;;;;;;5059507;28;20239;-79
2023/12/27 04:04:40;;;;;;;5.73;3.10;;;3.50;99.90;;;;;;5051670;28;20193;-77
2023/12/27 04:07:06;;;;;;;3.73;3.40;;;3.50;99.90;;;;;;5051541;28;20275;-80
2023/12/27 04:09:31;;;;;;;4.60;3.37;;;3.50;99.90;;;;;;5052403;28;20209;-81
2023/12/27 04:11:57;;;;;;;3.53;3.23;;;3.50;99.90;;;;;;5052058;28;20216;-79
2023/12/27 04:14:24;;;;;;;4.67;3.37;;;3.60;99.90;;;;;;5052599;28;20182;-79
2023/12/27 04:16:50;;;;;;;4.00;3.60;;;3.60;99.90;;;;;;5057051;28;20748;-78
2023/12/27 04:19:16;;;;;;;3.37;3.07;;;3.60;99.90;;;;;;5042782;28;20222;-79
2023/12/27 04:21:42;;;;;;;4.73;3.40;;;3.60;99.90;;;;;;5056123;28;20186;-79
2023/12/27 04:24:09;;;;;;;4.50;3.33;;;3.70;99.90;;;;;;5055498;28;20228;-79
2023/12/27 04:26:39;;;;;;;4.67;3.30;;;3.70;99.90;;;;;;5055538;28;20171;-77
2023/12/27 04:29:09;;;;;;;2.73;2.53;;;3.70;99.90;;;;;;5056226;28;20220;-79
2023/12/27 04:31:37;;;;;;;5.17;3.10;;;3.80;99.90;;;;;;5057773;28;20202;-77
2023/12/27 04:34:03;;;;;;;3.20;2.90;;;3.80;99.90;;;;;;5055313;28;20179;-78
2023/12/27 04:36:28;;;;;;;3.27;2.97;;;3.80;99.90;;;;;;5055298;28;20184;-78
2023/12/27 04:38:54;;;;;;;5.23;3.00;;;3.80;99.90;;;;;;5037568;28;20230;-78
2023/12/27 04:41:20;;;;;;;3.30;3.00;;;3.90;99.90;;;;;;5058097;28;20242;-79
2023/12/27 04:43:45;;;;;;;3.50;3.20;;;3.90;99.90;;;;;;5055760;28;20191;-79
2023/12/27 04:46:11;;;;;;;3.30;3.00;;;4.00;99.90;;;;;;5055249;28;20182;-80
2023/12/27 04:48:37;;;;;;;4.60;3.37;;;4.00;99.90;;;;;;5055347;28;20169;-81
2023/12/27 04:51:03;;;;;;;3.30;3.00;;;4.00;99.90;;;;;;5055024;28;20326;-78
2023/12/27 04:53:29;;;;;;;3.30;3.07;;;3.90;99.90;;;;;;5055629;28;20257;-80
2023/12/27 04:55:54;;;;;;;4.50;3.23;;;3.90;99.90;;;;;;5055543;28;20210;-79
2023/12/27 04:58:20;;;;;;;5.83;3.30;;;4.00;99.90;;;;;;5055783;28;20206;-80
2023/12/27 05:00:46;;;;;;;4.33;3.13;;;4.10;99.90;;;;;;5057298;28;20279;-76
2023/12/27 05:03:12;;;;;;;3.30;3.00;;;4.10;99.90;;;;;;5056821;28;20621;-79
2023/12/27 05:05:37;;;;;;;4.20;3.10;;;4.10;99.90;;;;;;5037617;28;20181;-81
2023/12/27 05:08:03;;;;;;;3.70;3.30;;;4.10;99.90;;;;;;5037173;28;20179;-81
2023/12/27 05:10:29;;;;;;;3.50;3.20;;;4.00;99.90;;;;;;5055070;28;20188;-78
2023/12/27 05:12:55;;;;;;;3.27;3.07;;;4.10;99.90;;;;;;5055284;28;20208;-79
2023/12/27 05:15:20;;;;;;;4.83;2.93;;;4.10;99.90;;;;;;5055339;28;20175;-79
2023/12/27 05:17:46;;;;;;;3.07;2.70;;;4.10;99.90;;;;;;5057479;28;20175;-78
2023/12/27 05:20:13;;;;;;;3.60;3.30;;;4.20;99.90;;;;;;5069989;28;20180;-79
2023/12/27 05:22:39;;;;;;;3.37;3.07;;;4.20;99.90;;;;;;5056590;28;20265;-78
2023/12/27 05:25:08;;;;;;;3.30;3.00;;;4.20;99.90;;;;;;5038008;28;20173;-78
2023/12/27 05:27:34;;;;;;;4.10;3.50;;;4.20;99.90;;;;;;5063202;28;20896;-78
2023/12/27 05:30:03;;;;;;;3.13;2.80;;;4.20;99.90;;;;;;5064421;28;20744;-77
2023/12/27 05:32:28;;;;;;;4.00;3.40;;;4.30;99.90;;;;;;5063619;28;20214;-80
2023/12/27 05:34:54;;;;;;;3.83;3.53;;;4.30;99.90;;;;;;5060839;28;20260;-80
2023/12/27 05:37:20;;;;;;;4.50;2.90;;;4.30;99.90;;;;;;5068088;28;20176;-79
2023/12/27 05:39:46;;;;;;;3.70;3.43;;;4.30;99.90;;;;;;5062671;28;20179;-79
2023/12/27 05:42:15;;;;;;;3.57;3.27;;;4.30;99.90;;;;;;5055049;28;20208;-80
2023/12/27 05:44:41;;;;;;;4.03;3.10;;;4.30;99.90;;;;;;5056101;28;20183;-79
2023/12/27 05:47:07;;;;;;;4.97;3.27;;;4.40;99.90;;;;;;5054945;28;20648;-80
2023/12/27 05:49:34;;;;;;;5.63;3.53;;;4.40;99.90;;;;;;5055456;28;20180;-79
2023/12/27 05:51:59;;;;;;;4.00;3.60;;;4.30;99.90;;;;;;5057794;28;20254;-80
2023/12/27 05:54:26;;;;;;;6.90;3.83;;;4.30;99.90;;;;;;5056338;28;20169;-78
2023/12/27 05:56:53;;;;;;;4.93;3.80;;;4.30;99.90;;;;;;5036391;28;20181;-80
2023/12/27 05:59:19;;;;;;;4.27;3.97;;;4.10;99.90;;;;;;5053883;28;20171;-79
2023/12/27 06:01:46;;;;;;;7.00;4.13;;;4.00;99.90;;;;;;5055451;28;20213;-78
2023/12/27 06:04:14;;;;;;;4.90;4.40;;;4.10;99.90;;;;;;5055889;28;20174;-80
2023/12/27 06:06:40;;;;;;;4.97;4.23;;;4.00;99.90;;;;;;5053777;28;20208;-80
2023/12/27 06:09:05;;;;;;;3.97;3.67;;;3.80;99.90;;;;;;5053704;28;20193;-80
2023/12/27 06:11:31;;;;;;;5.07;4.57;;;3.80;99.90;;;;;;5053519;28;20212;-81
2023/12/27 06:13:58;;;;;;;5.43;4.50;;;3.70;99.90;;;;;;5054247;28;20170;-79
2023/12/27 06:16:24;;;;;;;11.03;5.00;;;3.70;99.90;;;;;;5053535;28;20257;-79
2023/12/27 06:18:54;;;;;;;5.30;4.33;;;3.80;99.90;;;;;;5053466;28;20259;-80
2023/12/27 06:21:20;;;;;;;7.00;5.07;;;3.80;99.90;;;;;;5053583;28;20168;-79
2023/12/27 06:23:46;;;;;;;6.33;4.70;;;3.80;99.90;;;;;;5053803;28;20176;-79
2023/12/27 06:26:12;;;;;;;6.47;4.80;;;3.80;99.90;;;;;;5053181;28;20179;-78
2023/12/27 06:28:37;;;;;;;6.10;5.00;;;3.80;99.90;;;;;;5054580;28;20605;-78
2023/12/27 06:31:03;;;;;;;5.87;4.80;;;3.80;99.90;;;;;;5054495;28;20718;-77
2023/12/27 06:33:30;;;;;;;6.70;3.90;;;3.90;99.90;;;;;;5053765;28;20572;-76
2023/12/27 06:35:56;;;;;;;5.53;4.67;;;3.90;99.90;;;;;;5062019;28;20224;-77
2023/12/27 06:38:21;;;;;;;4.37;3.93;;;3.90;99.90;;;;;;5067429;28;20171;-79
2023/12/27 06:40:47;;;;;;;7.27;3.97;;;4.00;99.90;;;;;;5059049;28;20246;-79
2023/12/27 06:43:13;;;;;;;4.13;3.70;;;4.00;99.90;;;;;;5054303;28;20172;-80
2023/12/27 06:45:39;;;;;;;4.53;3.77;;;4.10;99.90;;;;;;5053343;28;20643;-79
2023/12/27 06:48:05;;;;;;;5.47;4.00;;;4.10;99.90;;;;;;5053413;28;20176;-78
2023/12/27 06:50:30;;;;;;;5.80;4.13;;;4.20;99.90;;;;;;5054031;28;20169;-79
2023/12/27 06:52:56;;;;;;;3.70;3.40;;;4.20;99.90;;;;;;5035321;28;20295;-80
2023/12/27 06:55:22;;;;;;;8.17;4.30;;;4.30;99.90;;;;;;5055733;28;20230;-80
2023/12/27 06:57:49;;;;;;;4.07;3.67;;;4.20;99.90;;;;;;5053346;28;20598;-78
2023/12/27 07:00:15;;;;;;;5.43;4.20;;;4.30;99.90;;;;;;5055593;28;20212;-80
2023/12/27 07:02:41;;;;;;;4.30;3.90;;;4.40;99.90;;;;;;5057508;28;20641;-80
2023/12/27 07:05:07;;;;;;;6.67;3.93;;;4.50;99.90;;;;;;5073677;28;20172;-79
2023/12/27 07:07:34;;;;;;;6.03;3.90;;;4.50;99.90;;;;;;5073847;28;20206;-80
2023/12/27 07:10:01;;;;;;;7.37;3.87;;;4.50;99.90;;;;;;5075052;28;20182;-78
2023/12/27 07:12:27;;;;;;;4.50;3.60;;;4.50;99.90;;;;;;5074314;28;20207;-80
2023/12/27 07:14:56;;;;;;;4.00;3.40;;;4.50;99.90;;;;;;5075655;28;20170;-76
2023/12/27 07:17:23;;;;;;;4.97;3.50;;;4.50;99.90;;;;;;5081614;28;20538;-78
2023/12/27 07:19:49;;;;;;;4.17;3.77;;;4.60;99.90;;;;;;5083789;28;20207;-79
2023/12/27 07:22:15;;;;;;;4.30;3.90;;;4.60;99.90;;;;;;5088774;28;20207;-79
2023/12/27 07:24:41;;;;;;;3.97;3.63;;;4.60;99.90;;;;;;5074422;28;20224;-80
2023/12/27 07:27:09;;;;;;;4.47;3.67;;;4.60;99.90;;;;;;5072797;28;20183;-79
2023/12/27 07:29:36;;;;;;;4.87;4.07;;;4.60;99.90;;;;;;5073064;28;20172;-81
2023/12/27 07:32:05;;;;;;;4.20;3.80;;;4.70;99.90;;;;;;5077254;28;20218;-78
2023/12/27 07:34:32;;;;;;;5.87;4.20;;;4.70;99.90;;;;;;5087978;28;20184;-78
2023/12/27 07:36:58;;;;;;;5.67;3.90;;;4.80;99.90;;;;;;5088708;28;20199;-78
2023/12/27 07:39:26;;;;;;;4.40;4.00;;;4.80;99.90;;;;;;5088689;28;20179;-79
2023/12/27 07:41:51;;;;;;;4.80;4.20;;;4.90;99.90;;;;;;5078603;28;20187;-79
2023/12/27 07:44:17;;;;;;;4.93;3.60;;;5.00;99.90;;;;;;5074169;28;20168;-79
2023/12/27 07:46:43;;;;;;;4.30;3.90;;;5.00;99.90;;;;;;5073477;28;20305;-77
2023/12/27 07:49:10;;;;;;;5.40;3.80;;;5.10;99.90;;;;;;5072619;28;20198;-76
2023/12/27 07:51:40;;;;;;;6.67;4.43;;;5.10;99.90;;;;;;5078689;28;20269;-78
2023/12/27 07:54:07;;;;;;;6.20;4.00;;;5.10;99.90;;;;;;5081051;28;20503;-76
2023/12/27 07:56:34;;;;;;;4.73;4.23;;;5.20;99.90;;;;;;5093497;28;20164;-79
2023/12/27 07:59:00;;;;;;;9.63;4.73;;;5.40;99.90;;;;;;5076659;28;20177;-80
2023/12/27 08:01:30;;;;;;;6.20;4.13;;;5.50;99.90;;;;;;5074113;28;20260;-79
2023/12/27 08:03:56;;;;;;;5.20;4.60;;;5.60;99.90;;;;;;5056494;28;20183;-78
2023/12/27 08:06:22;;;;;;;5.07;4.00;;;5.70;99.90;;;;;;5056079;28;20170;-79
2023/12/27 08:08:47;;;;;;;8.67;4.83;;;5.80;99.90;;;;;;5055986;28;20216;-79
2023/12/27 08:11:13;;;;;;;5.27;4.73;;;5.70;99.90;;;;;;5038359;28;20553;-79
2023/12/27 08:13:39;;;;;;;6.70;5.23;;;5.80;99.90;;;;;;5056146;28;20182;-79
2023/12/27 08:16:07;;;;;;;5.90;4.80;;;5.80;99.90;;;;;;5055395;28;20483;-80
2023/12/27 08:18:33;;;;;;;7.07;4.90;;;5.70;99.90;;;;;;5055215;28;20172;-79
2023/12/27 08:20:58;;;;;;;6.77;4.43;;;5.80;99.90;;;;;;5055816;28;20554;-78
2023/12/27 08:23:24;;;;;;;7.00;5.17;;;5.90;99.90;;;;;;5055912;28;20182;-78
2023/12/27 08:25:50;;;;;;;7.07;4.70;;;6.00;99.90;;;;;;5056012;28;20249;-77
2023/12/27 08:28:16;;;;;;;9.77;5.30;;;6.10;99.90;;;;;;5055913;28;20181;-79
2023/12/27 08:30:42;;;;;;;7.50;5.00;;;6.00;99.90;;;;;;5056341;28;20188;-78
2023/12/27 08:33:08;;;;;;;6.10;4.80;;;6.10;99.90;;;;;;5038296;28;20181;-74
2023/12/27 08:35:34;;;;;;;7.27;5.27;;;6.20;99.90;;;;;;5060248;28;20172;-78
2023/12/27 08:38:00;;;;;;;6.07;4.83;;;6.30;99.90;;;;;;5075340;28;20184;-79
2023/12/27 08:40:26;;;;;;;7.90;5.30;;;6.30;99.90;;;;;;5057733;28;20190;-78
2023/12/27 08:42:53;;;;;;;5.83;4.47;;;6.40;99.90;;;;;;5056728;28;20187;-78
2023/12/27 08:45:18;;;;;;;9.27;5.33;;;6.40;99.90;;;;;;5055974;28;20587;-78
2023/12/27 08:47:46;;;;;;;8.37;4.80;;;6.40;99.90;;;;;;5057097;28;20197;-79
2023/12/27 08:50:12;;;;;;;6.70;5.07;;;6.40;99.90;;;;;;5056480;28;20168;-79
2023/12/27 08:52:38;;;;;;;6.20;4.60;;;6.40;99.90;;;;;;5060790;28;20211;-77
2023/12/27 08:55:06;;;;;;;4.80;4.37;;;6.50;99.90;;;;;;5046461;28;20226;-78
2023/12/27 08:57:35;;;;;;;8.13;5.07;;;6.40;99.90;;;;;;5055899;28;20166;-78
2023/12/27 09:00:00;;;;;;;8.93;4.60;;;6.50;99.90;;;;;;5055827;28;20175;-75
2023/12/27 09:02:27;;;;;;;5.53;4.80;;;6.50;99.90;;;;;;5056185;28;20230;-77
2023/12/27 09:04:53;;;;;;;7.13;4.90;;;6.40;99.90;;;;;;5074556;28;20229;-77
2023/12/27 09:07:19;;;;;;;5.90;4.63;;;6.50;99.90;;;;;;5056197;28;20207;-77
2023/12/27 09:09:44;;;;;;;8.87;4.93;;;6.40;99.90;;;;;;5055942;28;20180;-79
2023/12/27 09:12:10;;;;;;;5.47;4.43;;;6.40;99.90;;;;;;5055856;28;20225;-76
2023/12/27 09:14:39;;;;;;;10.70;5.20;;;6.40;99.90;;;;;;5065049;28;20168;-78
2023/12/27 09:17:05;;;;;;;7.57;5.07;;;6.50;99.90;;;;;;5067400;28;20663;-79
2023/12/27 09:19:31;;;;;;;5.60;4.80;;;6.70;99.90;;;;;;5055954;28;20212;-79
2023/12/27 09:21:57;;;;;;;7.07;5.40;;;6.80;99.90;;;;;;5037623;28;20175;-80
2023/12/27 09:24:22;;;;;;;8.67;6.23;;;6.90;99.90;;;;;;5054627;28;20661;-77
2023/12/27 09:26:48;;;;;;;9.53;6.77;;;7.00;99.90;;;;;;5037739;28;20189;-78
2023/12/27 09:29:16;;;;;;;8.67;7.23;;;7.10;99.90;;;;;;5065478;28;20202;-79
2023/12/27 09:31:43;;;;;;;9.53;7.53;;;7.20;99.90;;;;;;5056551;28;20237;-78
2023/12/27 09:34:09;;;;;;;9.47;7.27;;;7.30;99.90;;;;;;5054974;28;20172;-78
2023/12/27 09:36:35;;;;;;;9.33;7.07;;;7.30;99.90;;;;;;5054897;28;20627;-76
2023/12/27 09:39:00;;;;;;;10.53;8.20;;;7.30;99.90;;;;;;5055080;28;20183;-77
2023/12/27 09:41:26;;;;;;;10.67;7.93;;;7.30;99.90;;;;;;5054510;28;20637;-78
2023/12/27 09:43:54;;;;;;;10.57;7.90;;;7.40;99.90;;;;;;5055860;28;20177;-79
2023/12/27 09:46:21;;;;;;;8.90;7.07;;;7.40;99.90;;;;;;5059543;28;20239;-78
2023/12/27 09:48:49;;;;;;;8.77;7.10;;;7.40;99.90;;;;;;5040116;28;20176;-79
2023/12/27 09:51:22;;;;;;;10.00;8.37;;;7.40;99.90;;;;;;5055586;28;20253;-78
2023/12/27 09:53:49;;;;;;;11.83;9.57;;;7.50;99.90;;;;;;5069611;28;20181;-79
2023/12/27 09:56:16;;;;;;;11.27;8.30;;;7.50;99.90;;;;;;5062960;28;20241;-76
2023/12/27 09:58:42;;;;;;;10.17;8.30;;;7.40;99.90;;;;;;5058933;28;20176;-76
2023/12/27 10:01:10;;;;;;;12.60;8.73;;;7.40;99.90;;;;;;5058056;28;20175;-78
2023/12/27 10:03:39;;;;;;;9.63;8.10;;;7.50;99.90;;;;;;5054930;28;20643;-76
2023/12/27 10:06:11;;;;;;;10.00;7.10;;;7.60;99.90;;;;;;5055086;28;20171;-79
2023/12/27 10:08:39;;;;;;;10.17;7.27;;;7.60;99.90;;;;;;5055050;28;20155;-78
2023/12/27 10:11:09;;;;;;;10.57;8.10;;;7.70;99.90;;;;;;5054921;28;20178;-76
2023/12/27 10:13:40;;;;;;;9.43;7.03;;;7.70;99.90;;;;;;5053842;28;20207;-80
2023/12/27 10:16:07;;;;;;;16.80;7.57;;;7.80;99.90;;;;;;5055479;28;20518;-76
2023/12/27 10:18:33;;;;;;;9.50;7.00;;;7.90;99.90;;;;;;5055958;28;20168;-80
2023/12/27 10:21:00;;;;;;;11.60;9.20;;;8.00;99.90;;;;;;5054480;28;20176;-79
2023/12/27 10:23:26;;;;;;;11.30;7.80;;;8.10;99.90;;;;;;5054475;28;20179;-76
2023/12/27 10:25:52;;;;;;;9.83;7.57;;;8.40;99.90;;;;;;5055620;28;20179;-79
2023/12/27 10:28:24;;;;;;;8.63;7.70;;;8.50;99.90;;;;;;5055189;28;20259;-76
2023/12/27 10:30:53;;;;;;;7.90;6.90;;;8.50;99.90;;;;;;5058123;28;20188;-76
2023/12/27 10:33:20;;;;;;;6.37;5.63;;;8.60;99.90;;;;;;5059328;28;20270;-77
2023/12/27 10:35:49;;;;;;;6.73;5.67;;;8.60;99.90;;;;;;5074510;28;20171;-78
2023/12/27 10:38:16;;;;;;;9.03;6.20;;;8.60;99.90;;;;;;5057741;28;20249;-75
2023/12/27 10:40:42;;;;;;;7.77;6.30;;;8.60;99.90;;;;;;5058176;28;20203;-77
2023/12/27 10:43:10;;;;;;;6.37;5.40;;;8.70;99.90;;;;;;5060588;28;20171;-77
2023/12/27 10:45:38;;;;;;;5.93;5.33;;;8.70;99.90;;;;;;5055515;28;20182;-78
2023/12/27 10:48:04;;;;;;;6.80;4.73;;;8.80;99.90;;;;;;5038654;28;20508;-77
2023/12/27 10:50:32;;;;;;;8.07;4.93;;;8.90;99.90;;;;;;5061855;28;20182;-77
2023/12/27 10:53:02;;;;;;;4.70;4.10;;;9.00;99.90;;;;;;5054656;28;20291;-78
2023/12/27 10:55:29;;;;;;;5.50;4.17;;;9.10;99.90;;;;;;5055074;28;20161;-77
2023/12/27 10:57:58;;;;;;;7.03;4.80;;;9.30;99.90;;;;;;5036175;28;20206;-77
2023/12/27 11:00:24;;;;;;;4.73;4.00;;;9.50;99.90;;;;;;5054477;28;20246;-75
2023/12/27 11:02:53;;;;;;;4.77;3.97;;;9.50;99.90;;;;;;5060498;28;20316;-78
2023/12/27 11:05:21;;;;;;;5.47;4.23;;;9.60;99.90;;;;;;5074721;28;20178;-78
2023/12/27 11:07:49;;;;;;;5.53;4.47;;;9.70;99.90;;;;;;5077078;28;20176;-75
2023/12/27 11:10:16;;;;;;;4.27;3.97;;;9.70;99.90;;;;;;5083962;28;20174;-78
2023/12/27 11:12:46;;;;;;;4.90;3.97;;;9.80;99.90;;;;;;5077658;28;20257;-76
2023/12/27 11:15:14;;;;;;;4.97;4.23;;;9.80;99.90;;;;;;5074302;28;20261;-74
2023/12/27 11:17:41;;;;;;;6.63;5.07;;;9.90;99.90;;;;;;5074048;28;20175;-77
2023/12/27 11:20:11;;;;;;;4.93;4.43;;;9.90;99.90;;;;;;5074007;28;20179;-78
2023/12/27 11:22:38;;;;;;;5.33;4.43;;;10.00;99.90;;;;;;5072236;28;20185;-77
2023/12/27 11:25:05;;;;;;;4.30;3.90;;;10.10;99.90;;;;;;5076936;28;20243;-79
2023/12/27 11:27:31;;;;;;;4.70;4.30;;;10.10;99.90;;;;;;5077242;28;20166;-77
2023/12/27 11:29:57;;;;;;;4.70;4.10;;;10.10;99.90;;;;;;5078370;28;20182;-75
2023/12/27 11:32:27;;;;;;;4.23;3.83;;;10.10;99.90;;;;;;5096736;28;20198;-77
2023/12/27 11:35:00;;;;;;;4.40;4.00;;;10.20;99.90;;;;;;5084276;28;20573;-78
2023/12/27 11:37:26;;;;;;;5.17;3.93;;;10.20;99.90;;;;;;5078607;28;20174;-78
2023/12/27 11:39:53;;;;;;;4.37;3.80;;;10.30;99.90;;;;;;5079981;28;20170;-80
2023/12/27 11:42:19;;;;;;;4.40;4.00;;;10.30;99.90;;;;;;5078116;28;20166;-77
2023/12/27 11:44:49;;;;;;;5.23;3.80;;;10.30;99.90;;;;;;5075331;28;20515;-79
2023/12/27 11:47:20;;;;;;;3.87;3.50;;;10.30;99.90;;;;;;5076491;28;20183;-76
2023/12/27 11:50:27;;;;;;;3.70;3.40;;;10.40;99.90;;;;;;5076655;28;20229;-76
2023/12/27 11:52:56;;;;;;;5.00;3.60;;;10.40;99.90;;;;;;5051339;28;20311;-76
2023/12/27 11:55:23;;;;;;;6.30;3.83;;;10.40;99.90;;;;;;5035910;28;21095;-76
2023/12/27 11:57:58;;;;;;;3.97;3.57;;;10.40;99.90;;;;;;5034531;28;20203;-79
2023/12/27 12:00:25;;;;;;;3.63;3.33;;;10.40;99.90;;;;;;5034884;28;20196;-77
2023/12/27 12:03:00;;;;;;;3.50;3.23;;;10.40;99.90;;;;;;5034606;28;20247;-78
2023/12/27 12:05:36;;;;;;;4.03;3.13;;;10.40;99.90;;;;;;5035782;28;20544;-78
2023/12/27 12:08:31;;;;;;;7.70;4.17;;;10.40;99.90;;;;;;5043484;28;20232;-77
2023/12/27 12:11:07;;;;;;;3.73;3.27;;;10.40;99.90;;;;;;5038463;28;20187;-76
2023/12/27 12:13:34;;;;;;;3.73;3.20;;;10.40;99.90;;;;;;5036575;28;20187;-77
2023/12/27 12:16:00;;;;;;;6.43;4.20;;;10.40;99.90;;;;;;5034731;28;20186;-78
2023/12/27 12:18:28;;;;;;;5.53;4.13;;;10.40;99.90;;;;;;5034872;28;20663;-78
2023/12/27 12:20:54;;;;;;;7.20;4.30;;;10.10;99.90;;;;;;5034970;28;20510;-78
2023/12/27 12:23:20;;;;;;;6.33;4.33;;;10.10;99.90;;;;;;5052284;28;20195;-77
2023/12/27 12:25:45;;;;;;;6.20;4.90;;;10.00;99.90;;;;;;5077521;28;20236;-79
2023/12/27 12:28:11;;;;;;;6.47;5.10;;;10.10;99.90;;;;;;5081641;28;20206;-76
2023/12/27 12:30:37;;;;;;;7.47;5.63;;;10.10;99.90;;;;;;5082447;28;20171;-79
2023/12/27 12:33:06;;;;;;;6.53;5.40;;;10.10;99.90;;;;;;5086475;28;20213;-75
2023/12/27 12:35:32;;;;;;;5.90;4.50;;;10.10;99.90;;;;;;5086993;28;20186;-76
2023/12/27 12:37:57;;;;;;;6.50;5.30;;;10.20;99.90;;;;;;5079339;28;20180;-77
2023/12/27 12:40:23;;;;;;;7.53;5.67;;;10.20;99.90;;;;;;5076807;28;20174;-78
2023/12/27 12:42:51;;;;;;;8.87;5.30;;;10.10;99.90;;;;;;5076741;28;20215;-78
2023/12/27 12:45:17;;;;;;;6.77;5.63;;;10.20;99.90;;;;;;5075934;28;20270;-76
2023/12/27 12:47:43;;;;;;;6.03;4.90;;;10.20;99.90;;;;;;5082512;28;20179;-77
2023/12/27 12:50:09;;;;;;;7.17;6.17;;;10.20;99.90;;;;;;5090791;28;20187;-77
2023/12/27 12:52:36;;;;;;;6.00;5.40;;;10.20;99.90;;;;;;5078888;28;20211;-77